Drake — WDF2215 — position and weather

sailwx.info

Track history (hours):
 
Tides and Currents Weather Stations Pressure Air Temp Water Temp Dewpoint Dewpoint Depression Visibility Wind Speed Wind Dir Waves Ship Positions

Drake

Owner: San Francisco Bar Pilots, Seattle, WA. More information available from US FCC via Universal Licensing System and Coast Guard Vessel Documentation Center.

Last reported at 2018-Feb-24 21:30 UTC. Time now 2018-Feb-24 21:57 UTC.
Position N 37°47' W 122°33'.

Length 32 m; draft 3 m.

Type: Pilot. MMSI: 367426120.

Date/timePositionNaut miles runAvg speedWind from/ knotsBaromVisibWave heightAir tempDewpointWater temp
2018-Feb-24 21:30N 37°47' W 122°33'613.0
2018-Feb-24 21:01N 37°49' W 122°25'  
2018-Feb-19 23:44N 37°48' W 122°24'0 0.0
2018-Feb-19 23:30N 37°48' W 122°24'0 0.0
2018-Feb-19 22:59N 37°48' W 122°24'0 0.0
2018-Feb-19 22:30N 37°48' W 122°24'0 0.0
2018-Feb-19 22:00N 37°48' W 122°24'0 0.0
2018-Feb-19 21:30N 37°48' W 122°24'0 0.0
2018-Feb-19 21:00N 37°48' W 122°24'0 0.0
2018-Feb-19 20:30N 37°48' W 122°24'0 0.0
2018-Feb-19 20:00N 37°48' W 122°24'0 0.0
2018-Feb-19 19:30N 37°48' W 122°24'0 0.0
2018-Feb-19 19:00N 37°48' W 122°24'0 0.0
2018-Feb-19 18:30N 37°48' W 122°24'0 0.0
2018-Feb-19 18:00N 37°48' W 122°24'0 0.0
2018-Feb-19 17:30N 37°48' W 122°24'0 0.0
2018-Feb-19 17:00N 37°48' W 122°24'0 0.0
2018-Feb-19 16:30N 37°48' W 122°24'0 0.0
2018-Feb-19 16:00N 37°48' W 122°24'0 0.0
2018-Feb-19 15:30N 37°48' W 122°24'0 0.0
2018-Feb-19 15:00N 37°48' W 122°24'0 0.0
2018-Feb-19 14:30N 37°48' W 122°24'2 3.6
2018-Feb-19 14:00N 37°48' W 122°21'3 5.5
2018-Feb-19 13:30N 37°48' W 122°18'1 1.1
2018-Feb-19 13:00N 37°48' W 122°19'2 4.7
2018-Feb-19 12:30N 37°46' W 122°21'2 4.3
2018-Feb-19 12:01N 37°44' W 122°20'4 7.1
2018-Feb-19 11:30N 37°47' W 122°22'4 8.7
2018-Feb-19 11:00N 37°50' W 122°26'612.5
2018-Feb-19 10:30N 37°47' W 122°33'714.0
2018-Feb-19 10:00N 37°44' W 122°41'510.4
2018-Feb-19 09:30N 37°46' W 122°36'611.1
2018-Feb-19 09:00N 37°49' W 122°29'4 8.7
2018-Feb-19 08:30N 37°48' W 122°24'0 0.0
2018-Feb-19 08:00N 37°48' W 122°24'0 0.0
2018-Feb-19 00:59N 37°48' W 122°24'4 7.5
2018-Feb-19 00:30N 37°49' W 122°28'610.7
2018-Feb-19 00:00N 37°47' W 122°34'3 5.4
2018-Feb-18 23:30N 37°46' W 122°38'611.8
2018-Feb-18 23:00N 37°48' W 122°31'511.0
2018-Feb-18 22:30N 37°48' W 122°24'3 6.6
2018-Feb-18 22:00N 37°48' W 122°20'3 6.6
2018-Feb-18 21:30N 37°48' W 122°24'0 0.0
2018-Feb-18 21:00N 37°48' W 122°24'0 0.0
2018-Feb-18 20:31N 37°48' W 122°24'  
Track history (hours):
 
Tides and Currents Weather Stations Pressure Air Temp Water Temp Dewpoint Dewpoint Depression Visibility Wind Speed Wind Dir Waves Ship Positions

Drake

Owner: San Francisco Bar Pilots, Seattle, WA. More information available from US FCC via Universal Licensing System and Coast Guard Vessel Documentation Center.

Last reported at 2018-Feb-24 21:30 UTC. Time now 2018-Feb-24 21:57 UTC.
Position N 37°47' W 122°33'.

Length 32 m; draft 3 m.

Type: Pilot. MMSI: 367426120.

Date/timePositionNaut miles runAvg speedWind from/ knotsBaromVisibWave heightAir tempDewpointWater temp
2018-Feb-24 21:30N 37°47' W 122°33'613.0
2018-Feb-24 21:01N 37°49' W 122°25'  
2018-Feb-19 23:44N 37°48' W 122°24'0 0.0
2018-Feb-19 23:30N 37°48' W 122°24'0 0.0
2018-Feb-19 22:59N 37°48' W 122°24'0 0.0
2018-Feb-19 22:30N 37°48' W 122°24'0 0.0
2018-Feb-19 22:00N 37°48' W 122°24'0 0.0
2018-Feb-19 21:30N 37°48' W 122°24'0 0.0
2018-Feb-19 21:00N 37°48' W 122°24'0 0.0
2018-Feb-19 20:30N 37°48' W 122°24'0 0.0
2018-Feb-19 20:00N 37°48' W 122°24'0 0.0
2018-Feb-19 19:30N 37°48' W 122°24'0 0.0
2018-Feb-19 19:00N 37°48' W 122°24'0 0.0
2018-Feb-19 18:30N 37°48' W 122°24'0 0.0
2018-Feb-19 18:00N 37°48' W 122°24'0 0.0
2018-Feb-19 17:30N 37°48' W 122°24'0 0.0
2018-Feb-19 17:00N 37°48' W 122°24'0 0.0
2018-Feb-19 16:30N 37°48' W 122°24'0 0.0
2018-Feb-19 16:00N 37°48' W 122°24'0 0.0
2018-Feb-19 15:30N 37°48' W 122°24'0 0.0
2018-Feb-19 15:00N 37°48' W 122°24'0 0.0
2018-Feb-19 14:30N 37°48' W 122°24'2 3.6
2018-Feb-19 14:00N 37°48' W 122°21'3 5.5
2018-Feb-19 13:30N 37°48' W 122°18'1 1.1
2018-Feb-19 13:00N 37°48' W 122°19'2 4.7
2018-Feb-19 12:30N 37°46' W 122°21'2 4.3
2018-Feb-19 12:01N 37°44' W 122°20'4 7.1
2018-Feb-19 11:30N 37°47' W 122°22'4 8.7
2018-Feb-19 11:00N 37°50' W 122°26'612.5
2018-Feb-19 10:30N 37°47' W 122°33'714.0
2018-Feb-19 10:00N 37°44' W 122°41'510.4
2018-Feb-19 09:30N 37°46' W 122°36'611.1
2018-Feb-19 09:00N 37°49' W 122°29'4 8.7
2018-Feb-19 08:30N 37°48' W 122°24'0 0.0
2018-Feb-19 08:00N 37°48' W 122°24'0 0.0
2018-Feb-19 00:59N 37°48' W 122°24'4 7.5
2018-Feb-19 00:30N 37°49' W 122°28'610.7
2018-Feb-19 00:00N 37°47' W 122°34'3 5.4
2018-Feb-18 23:30N 37°46' W 122°38'611.8
2018-Feb-18 23:00N 37°48' W 122°31'511.0
2018-Feb-18 22:30N 37°48' W 122°24'3 6.6
2018-Feb-18 22:00N 37°48' W 122°20'3 6.6
2018-Feb-18 21:30N 37°48' W 122°24'0 0.0
2018-Feb-18 21:00N 37°48' W 122°24'0 0.0
2018-Feb-18 20:31N 37°48' W 122°24'  

Dump ship's entire track history